createdAt,value
2022-12-06T00:02:16.310Z,3.30
2022-12-06T00:04:47.014Z,3.30
2022-12-06T00:07:18.884Z,3.30
2022-12-06T00:09:47.628Z,3.30
2022-12-06T00:12:15.790Z,3.30
2022-12-06T00:14:45.383Z,3.20
2022-12-06T00:17:13.688Z,3.30
2022-12-06T00:19:40.649Z,3.30
2022-12-06T00:22:08.659Z,3.20
2022-12-06T00:24:37.703Z,3.30
2022-12-06T00:27:06.349Z,3.20
2022-12-06T00:29:35.970Z,3.20
2022-12-06T00:32:04.217Z,3.30
2022-12-06T00:34:32.690Z,3.20
2022-12-06T00:37:01.174Z,3.20
2022-12-06T00:39:30.107Z,3.20
2022-12-06T00:41:59.614Z,3.10
2022-12-06T00:44:30.176Z,3.00
2022-12-06T00:46:58.768Z,3.10
2022-12-06T00:49:27.291Z,3.00
2022-12-06T00:51:57.514Z,3.10
2022-12-06T00:54:25.667Z,3.10
2022-12-06T00:56:55.898Z,3.10
2022-12-06T00:59:26.538Z,3.00
2022-12-06T01:01:57.433Z,3.00
2022-12-06T01:04:29.518Z,2.90
2022-12-06T01:06:59.874Z,2.80
2022-12-06T01:09:32.258Z,2.80
2022-12-06T01:12:01.108Z,2.70
2022-12-06T01:14:29.293Z,2.70
2022-12-06T01:16:59.803Z,2.50
2022-12-06T01:19:28.288Z,2.50
2022-12-06T01:22:04.554Z,2.50
2022-12-06T01:24:32.776Z,2.50
2022-12-06T01:27:02.083Z,2.60
2022-12-06T01:29:32.373Z,2.50
2022-12-06T01:32:08.709Z,2.40
2022-12-06T01:34:37.069Z,2.50
2022-12-06T01:37:05.834Z,2.50
2022-12-06T01:39:36.308Z,2.50
2022-12-06T01:42:05.137Z,2.50
2022-12-06T01:44:52.354Z,2.50
2022-12-06T01:47:51.369Z,2.50
2022-12-06T01:50:46.534Z,2.50
2022-12-06T01:53:19.313Z,2.60
2022-12-06T01:55:53.830Z,2.60
2022-12-06T01:58:30.669Z,2.60
2022-12-06T02:00:59.233Z,2.60
2022-12-06T02:03:32.194Z,2.60
2022-12-06T02:06:06.870Z,2.70
2022-12-06T02:08:45.355Z,2.70
2022-12-06T02:11:16.504Z,2.70
2022-12-06T02:13:46.238Z,2.70
2022-12-06T02:16:43.319Z,2.60
2022-12-06T02:20:05.269Z,2.50
2022-12-06T02:23:13.751Z,2.50
2022-12-06T02:26:14.712Z,2.40
2022-12-06T02:29:20.293Z,2.30
2022-12-06T05:39:48.269Z,-1.50
2022-12-06T05:42:22.457Z,-1.10
2022-12-06T05:44:55.516Z,-0.80
2022-12-06T05:47:23.951Z,-0.50
2022-12-06T05:49:51.385Z,-0.20
2022-12-06T05:52:20.644Z,0.10
2022-12-06T05:54:51.179Z,0.50
2022-12-06T05:57:21.324Z,1.00
2022-12-06T05:59:49.977Z,1.30
2022-12-06T06:02:17.342Z,1.50
2022-12-06T06:04:45.750Z,1.60
2022-12-06T06:07:14.289Z,1.70
2022-12-06T06:09:43.390Z,1.80
2022-12-06T06:12:12.846Z,1.90
2022-12-06T06:14:41.379Z,1.80
2022-12-06T06:17:10.695Z,1.70
2022-12-06T06:19:39.211Z,1.60
2022-12-06T06:22:06.518Z,1.60
2022-12-06T06:24:39.613Z,1.60
2022-12-06T06:27:07.979Z,1.60
2022-12-06T06:29:40.684Z,1.60
2022-12-06T06:32:15.079Z,1.60
2022-12-06T06:34:42.133Z,1.60
2022-12-06T06:37:09.870Z,1.60
2022-12-06T06:39:39.824Z,1.70
2022-12-06T06:42:10.267Z,1.70
2022-12-06T06:44:39.740Z,1.70
2022-12-06T06:47:09.174Z,1.70
2022-12-06T06:49:36.635Z,1.70
2022-12-06T06:52:05.389Z,1.80
2022-12-06T06:54:33.169Z,1.90
2022-12-06T06:57:15.868Z,1.90
2022-12-06T06:59:54.981Z,1.90
2022-12-06T07:02:22.347Z,1.90
2022-12-06T07:04:55.547Z,2.00
2022-12-06T07:07:25.254Z,2.00
2022-12-06T07:09:53.852Z,2.10
2022-12-06T07:12:23.391Z,2.20
2022-12-06T07:15:02.213Z,2.20
2022-12-06T07:17:29.568Z,2.30
2022-12-06T07:20:06.479Z,2.30
2022-12-06T07:22:43.643Z,2.40
2022-12-06T07:25:13.099Z,2.50
2022-12-06T07:27:43.358Z,2.50
2022-12-06T07:30:15.782Z,2.60
2022-12-06T07:32:44.959Z,2.70
2022-12-06T07:35:13.245Z,2.70
2022-12-06T07:37:45.738Z,2.80
2022-12-06T07:40:41.192Z,2.90
2022-12-06T07:43:29.244Z,2.90
2022-12-06T07:45:56.956Z,2.80
2022-12-06T07:48:24.659Z,2.90
2022-12-06T07:51:05.509Z,3.00
2022-12-06T07:53:34.287Z,3.10
2022-12-06T07:56:11.318Z,3.20
2022-12-06T07:58:40.678Z,3.30
2022-12-06T08:01:10.625Z,3.30
2022-12-06T08:03:41.458Z,3.40
2022-12-06T08:06:08.934Z,3.50
2022-12-06T08:08:41.599Z,3.50
2022-12-06T08:11:10.896Z,3.60
2022-12-06T08:13:38.470Z,3.60
2022-12-06T08:16:13.460Z,3.70
2022-12-06T08:18:47.164Z,3.80
2022-12-06T08:21:17.573Z,3.90
2022-12-06T08:23:48.099Z,4.00
2022-12-06T08:26:19.239Z,4.10
2022-12-06T08:28:46.909Z,4.10
2022-12-06T08:31:19.533Z,4.20
2022-12-06T08:33:48.895Z,4.30
2022-12-06T08:36:24.910Z,4.40
2022-12-06T08:38:53.022Z,4.40
2022-12-06T08:41:42.402Z,4.50
2022-12-06T08:44:17.257Z,4.80
2022-12-06T08:46:47.737Z,4.90
2022-12-06T08:49:17.658Z,4.90
2022-12-06T08:51:55.041Z,5.00
2022-12-06T08:54:24.839Z,5.20
2022-12-06T08:56:53.733Z,5.40
2022-12-06T08:59:23.449Z,5.70
2022-12-06T09:01:55.475Z,5.80
2022-12-06T09:04:25.272Z,6.00
2022-12-06T09:07:04.445Z,6.20
2022-12-06T09:09:37.934Z,6.30
2022-12-06T09:12:13.950Z,6.20
2022-12-06T09:14:42.909Z,6.20
2022-12-06T09:17:14.903Z,6.10
2022-12-06T09:19:44.965Z,6.10
2022-12-06T09:22:14.615Z,6.10
2022-12-06T09:24:44.845Z,6.10
2022-12-06T09:27:13.045Z,6.00
2022-12-06T09:29:43.416Z,6.00
2022-12-06T09:32:11.910Z,6.00
2022-12-06T09:34:42.490Z,6.10
2022-12-06T09:37:13.402Z,6.10
2022-12-06T09:39:54.748Z,6.30
2022-12-06T09:42:49.099Z,6.50
2022-12-06T09:45:50.863Z,6.60
2022-12-06T09:48:57.559Z,6.60
2022-12-06T09:51:52.224Z,6.60
2022-12-06T09:54:55.877Z,6.60
2022-12-06T09:57:48.849Z,6.50
2022-12-06T10:00:23.592Z,6.50
2022-12-06T10:03:34.339Z,6.60
2022-12-06T10:06:15.085Z,6.60
2022-12-06T10:09:17.515Z,6.80
2022-12-06T10:12:19.886Z,6.90
2022-12-06T10:15:23.522Z,7.00
2022-12-06T10:18:25.939Z,7.10
2022-12-06T10:21:13.819Z,7.10
2022-12-06T10:24:04.975Z,7.00
2022-12-06T10:26:52.080Z,6.80
2022-12-06T10:29:29.792Z,6.70
2022-12-06T10:32:20.113Z,6.70
2022-12-06T10:35:41.749Z,6.80
2022-12-06T10:38:27.714Z,6.90
2022-12-06T10:41:18.938Z,7.00
2022-12-06T10:44:40.839Z,7.10
2022-12-06T10:47:36.165Z,7.10
2022-12-06T10:50:30.276Z,7.10
2022-12-06T10:53:21.390Z,7.00
2022-12-06T10:55:50.853Z,7.10
2022-12-06T10:58:42.292Z,7.20
2022-12-06T11:01:28.877Z,7.20
2022-12-06T11:04:25.458Z,7.20
2022-12-06T11:07:11.053Z,5.70
2022-12-06T11:09:48.524Z,3.80
2022-12-06T11:12:36.154Z,2.50
2022-12-06T11:15:24.499Z,1.80
2022-12-06T11:18:19.215Z,1.40
2022-12-06T11:21:16.748Z,1.10
2022-12-06T11:24:07.219Z,1.00
2022-12-06T11:27:18.563Z,2.00
2022-12-06T11:29:50.444Z,2.90
2022-12-06T11:32:19.959Z,3.60
2022-12-06T11:34:58.854Z,4.10
2022-12-06T11:37:30.790Z,4.50
2022-12-06T11:40:28.778Z,4.80
2022-12-06T11:43:02.790Z,5.00
2022-12-06T11:45:34.223Z,5.20
2022-12-06T11:48:13.424Z,5.30
2022-12-06T11:50:44.559Z,5.50
2022-12-06T11:53:38.353Z,5.60
2022-12-06T11:56:51.030Z,5.70
2022-12-06T11:59:37.310Z,5.70
2022-12-06T12:02:04.887Z,5.70
2022-12-06T12:04:45.150Z,5.70
2022-12-06T12:07:22.280Z,5.80
2022-12-06T12:10:24.509Z,5.80
2022-12-06T12:13:12.117Z,5.80
2022-12-06T12:15:53.334Z,5.70
2022-12-06T12:18:36.774Z,5.50
2022-12-06T12:21:07.392Z,4.10
2022-12-06T12:23:48.230Z,2.30
2022-12-06T12:26:23.119Z,0.90
2022-12-06T12:29:15.616Z,-0.30
2022-12-06T12:31:59.667Z,-0.90
2022-12-06T12:34:31.737Z,-1.40
2022-12-06T12:37:05.464Z,-1.70
2022-12-06T12:39:45.568Z,-2.00
2022-12-06T12:42:49.333Z,-2.10
2022-12-06T12:45:20.838Z,-2.30
2022-12-06T12:48:42.798Z,-2.50
2022-12-06T12:51:48.826Z,-2.60
2022-12-06T12:55:22.303Z,-2.60
2022-12-06T12:57:59.110Z,-1.60
2022-12-06T13:00:48.553Z,-0.60
2022-12-06T13:03:50.131Z,0.20
2022-12-06T13:06:42.756Z,0.90
2022-12-06T13:09:24.497Z,1.60
2022-12-06T13:12:20.118Z,2.10
2022-12-06T13:15:01.627Z,2.50
2022-12-06T13:17:32.792Z,2.90
2022-12-06T13:20:02.909Z,3.20
2022-12-06T13:22:38.961Z,3.40
2022-12-06T13:25:13.498Z,3.60
2022-12-06T13:27:48.538Z,3.80
2022-12-06T13:30:39.649Z,3.90
2022-12-06T13:33:20.954Z,4.00
2022-12-06T13:36:19.601Z,4.10
2022-12-06T13:38:49.533Z,4.30
2022-12-06T13:42:01.274Z,4.30
2022-12-06T13:44:54.872Z,4.30
2022-12-06T13:47:33.450Z,4.30
2022-12-06T13:50:04.020Z,4.30
2022-12-06T13:52:56.741Z,4.30
2022-12-06T13:55:38.665Z,4.30
2022-12-06T13:58:12.174Z,4.30
2022-12-06T14:00:55.621Z,4.30
2022-12-06T14:03:30.841Z,4.30
2022-12-06T14:06:18.388Z,4.30
2022-12-06T14:09:06.344Z,4.30
2022-12-06T14:11:39.718Z,4.30
2022-12-06T14:14:20.136Z,4.30
2022-12-06T14:17:05.850Z,4.30
2022-12-06T14:19:49.309Z,4.30
2022-12-06T14:22:50.214Z,4.30
2022-12-06T14:25:33.511Z,4.30
2022-12-06T14:28:07.755Z,4.40
2022-12-06T14:30:39.645Z,4.40
2022-12-06T14:33:28.021Z,4.30
2022-12-06T14:35:57.702Z,4.30
2022-12-06T14:38:29.719Z,4.30
2022-12-06T14:41:19.009Z,4.30
2022-12-06T14:43:53.023Z,4.30
2022-12-06T14:46:29.192Z,4.20
2022-12-06T14:49:18.713Z,4.20
2022-12-06T14:51:46.975Z,4.20
2022-12-06T14:54:37.471Z,4.20
2022-12-06T14:57:18.257Z,4.20
2022-12-06T15:00:14.903Z,4.20
2022-12-06T15:02:41.989Z,4.10
2022-12-06T15:05:40.708Z,4.20
2022-12-06T15:08:34.099Z,4.20
2022-12-06T15:11:40.479Z,4.10
2022-12-06T15:14:31.018Z,4.10
2022-12-06T15:17:05.403Z,4.00
2022-12-06T15:19:36.259Z,4.00
2022-12-06T15:22:31.963Z,3.90
2022-12-06T15:25:01.228Z,3.90
2022-12-06T15:27:28.295Z,3.90
2022-12-06T15:30:05.154Z,3.90
2022-12-06T15:32:34.184Z,3.90
2022-12-06T15:35:01.125Z,3.90
2022-12-06T15:37:38.788Z,3.90
2022-12-06T15:40:14.354Z,3.90
2022-12-06T15:42:41.549Z,3.80
2022-12-06T15:45:27.119Z,3.80
2022-12-06T15:47:57.880Z,3.50
2022-12-06T15:50:28.159Z,3.50
2022-12-06T15:52:57.684Z,3.60
2022-12-06T15:55:24.711Z,3.50
2022-12-06T15:57:51.780Z,3.50
2022-12-06T16:00:21.207Z,3.40
2022-12-06T16:02:52.078Z,3.40
2022-12-06T16:05:19.633Z,3.40
2022-12-06T16:07:50.385Z,3.20
2022-12-06T16:10:22.541Z,3.10
2022-12-06T16:13:16.013Z,3.10
2022-12-06T16:15:55.499Z,3.20
2022-12-06T16:18:24.099Z,3.30
2022-12-06T16:20:54.922Z,3.20
2022-12-06T16:26:36.710Z,3.00
2022-12-06T16:29:07.194Z,2.80
2022-12-06T16:31:38.964Z,2.80
2022-12-06T16:34:19.173Z,2.80
2022-12-06T16:37:06.924Z,2.90
2022-12-06T16:39:37.114Z,2.80
2022-12-06T16:42:08.589Z,2.80
2022-12-06T16:44:51.746Z,2.80
2022-12-06T16:49:59.690Z,2.70
2022-12-06T16:52:27.761Z,2.80
2022-12-06T16:54:57.135Z,2.90
2022-12-06T16:57:28.154Z,2.80
2022-12-06T16:59:58.950Z,2.70
2022-12-06T17:02:34.125Z,2.60
2022-12-06T17:07:53.492Z,2.70
2022-12-06T17:10:22.393Z,2.70
2022-12-06T17:12:53.044Z,2.80
2022-12-06T17:15:24.075Z,2.80
2022-12-06T17:17:51.123Z,2.90
2022-12-06T17:20:24.745Z,2.90
2022-12-06T17:22:53.017Z,2.90
2022-12-06T17:25:22.929Z,3.00
2022-12-06T17:27:53.027Z,3.10
2022-12-06T17:30:23.503Z,3.10
2022-12-06T17:32:52.281Z,3.10
2022-12-06T17:35:29.615Z,3.10
2022-12-06T17:38:05.700Z,3.10
2022-12-06T17:40:36.968Z,3.20
2022-12-06T17:43:06.634Z,3.20
2022-12-06T17:45:44.657Z,3.20
2022-12-06T17:48:12.734Z,3.20
2022-12-06T17:50:41.559Z,3.20
2022-12-06T17:53:10.404Z,3.20
2022-12-06T17:55:42.056Z,3.30
2022-12-06T17:58:18.005Z,3.30
2022-12-06T18:00:47.399Z,3.30
2022-12-06T18:03:17.277Z,3.40
2022-12-06T18:05:49.836Z,3.30
2022-12-06T18:08:20.703Z,3.40
2022-12-06T18:11:02.209Z,3.40
2022-12-06T18:13:32.790Z,3.40
2022-12-06T18:16:08.772Z,3.40
2022-12-06T18:18:37.148Z,3.40
2022-12-06T18:21:10.802Z,3.40
2022-12-06T18:24:12.858Z,3.40
2022-12-06T18:26:28.650Z,3.40
2022-12-06T18:29:00.569Z,3.30
2022-12-06T18:31:33.995Z,3.30
2022-12-06T18:34:02.849Z,3.30
2022-12-06T18:36:33.380Z,3.20
2022-12-06T18:39:07.364Z,2.30
2022-12-06T18:41:50.048Z,0.60
2022-12-06T18:44:20.060Z,-0.70
2022-12-06T18:46:49.325Z,-1.80
2022-12-06T18:49:24.576Z,-2.40
2022-12-06T18:51:55.659Z,-2.80
2022-12-06T18:54:29.532Z,-3.10
2022-12-06T18:57:06.446Z,-3.40
2022-12-06T18:59:37.976Z,-3.50
2022-12-06T19:02:06.988Z,-3.60
2022-12-06T19:04:41.266Z,-3.80
2022-12-06T19:07:23.585Z,-3.80
2022-12-06T19:09:55.063Z,-3.80
2022-12-06T19:12:25.734Z,-4.00
2022-12-06T19:14:57.635Z,-4.10
2022-12-06T19:17:25.954Z,-4.00
2022-12-06T19:19:56.373Z,-4.10
2022-12-06T19:22:24.369Z,-4.10
2022-12-06T19:24:54.766Z,-4.10
2022-12-06T19:27:30.155Z,-4.00
2022-12-06T19:30:04.047Z,-2.40
2022-12-06T19:32:43.281Z,-1.20
2022-12-06T19:35:11.268Z,-2.10
2022-12-06T19:37:43.929Z,-3.10
2022-12-06T19:40:14.623Z,-3.70
2022-12-06T19:43:03.755Z,-4.10
2022-12-06T19:45:39.523Z,-4.30
2022-12-06T19:48:07.951Z,-4.40
2022-12-06T19:50:43.403Z,-4.40
2022-12-06T19:53:12.014Z,-4.50
2022-12-06T19:55:46.254Z,-4.50
2022-12-06T19:58:16.200Z,-4.60
2022-12-06T20:00:46.613Z,-4.70
2022-12-06T20:03:15.109Z,-4.70
2022-12-06T20:05:43.444Z,-4.70
2022-12-06T20:08:12.147Z,-4.80
2022-12-06T20:10:46.854Z,-4.80
2022-12-06T20:13:17.074Z,-4.90
2022-12-06T20:15:45.462Z,-4.90
2022-12-06T20:18:12.678Z,-4.90
2022-12-06T20:20:51.302Z,-5.00
2022-12-06T20:23:21.713Z,-5.00
2022-12-06T20:25:51.623Z,-5.00
2022-12-06T20:28:20.343Z,-4.90
2022-12-06T20:30:48.499Z,-4.40
2022-12-06T20:33:17.946Z,-3.60
2022-12-06T20:35:47.839Z,-2.90
2022-12-06T20:38:23.505Z,-2.20
2022-12-06T20:40:54.370Z,-1.70
2022-12-06T20:43:29.890Z,-0.90
2022-12-06T20:46:15.028Z,-0.40
2022-12-06T20:48:49.731Z,0.20
2022-12-06T20:51:30.367Z,0.40
2022-12-06T20:54:15.319Z,0.50
2022-12-06T20:56:44.995Z,0.60
2022-12-06T20:59:20.823Z,0.70
2022-12-06T21:01:50.584Z,0.70
2022-12-06T21:04:19.114Z,0.80
2022-12-06T21:06:55.034Z,0.90
2022-12-06T21:09:24.716Z,1.00
2022-12-06T21:12:02.229Z,1.00
2022-12-06T21:14:31.815Z,1.00
2022-12-06T21:17:02.799Z,1.10
2022-12-06T21:19:29.733Z,1.10
2022-12-06T21:22:02.875Z,1.20
2022-12-06T21:24:30.121Z,1.20
2022-12-06T21:27:00.488Z,1.20
2022-12-06T21:29:31.227Z,1.20
2022-12-06T21:32:02.909Z,1.20
2022-12-06T21:34:30.159Z,1.20
2022-12-06T21:36:57.249Z,1.20
2022-12-06T21:39:28.261Z,1.30
2022-12-06T21:41:57.754Z,1.30
2022-12-06T21:44:26.959Z,1.30
2022-12-06T21:46:56.345Z,1.30
2022-12-06T21:49:27.129Z,1.40
2022-12-06T21:52:02.093Z,1.40
2022-12-06T21:54:36.814Z,1.40
2022-12-06T21:57:05.110Z,1.40
2022-12-06T21:59:40.834Z,1.50
2022-12-06T22:02:11.278Z,1.50
2022-12-06T22:04:38.832Z,1.60
2022-12-06T22:07:07.486Z,1.60
2022-12-06T22:09:37.019Z,1.60
2022-12-06T22:12:14.518Z,1.60
2022-12-06T22:14:41.594Z,1.60
2022-12-06T22:17:11.831Z,1.70
2022-12-06T22:19:44.223Z,1.80
2022-12-06T22:22:15.394Z,0.80
2022-12-06T22:24:51.485Z,-0.70
2022-12-06T22:27:19.813Z,-1.80
2022-12-06T22:29:48.324Z,-2.50
2022-12-06T22:32:19.095Z,-2.80
2022-12-06T22:34:46.609Z,-3.00
2022-12-06T22:37:17.163Z,-3.00
2022-12-06T22:39:45.783Z,-3.00
2022-12-06T22:42:24.294Z,-3.00
2022-12-06T22:44:53.253Z,-3.00
2022-12-06T22:47:20.509Z,-2.90
2022-12-06T22:49:49.619Z,-2.90
2022-12-06T22:52:25.655Z,-2.90
2022-12-06T22:54:54.244Z,-2.90
2022-12-06T22:57:26.029Z,-2.80
2022-12-06T22:59:57.619Z,-2.80
2022-12-06T23:02:24.944Z,-2.10
2022-12-06T23:04:54.458Z,-1.60
2022-12-06T23:07:24.870Z,-1.00
2022-12-06T23:10:01.002Z,-0.60
2022-12-06T23:12:31.128Z,-0.30
2022-12-06T23:15:00.893Z,0.00
2022-12-06T23:17:37.015Z,0.30
2022-12-06T23:20:12.036Z,0.50
2022-12-06T23:22:43.091Z,0.70
2022-12-06T23:25:13.644Z,0.90
2022-12-06T23:27:50.553Z,1.00
2022-12-06T23:30:20.095Z,1.20
2022-12-06T23:32:48.416Z,1.30
2022-12-06T23:35:25.509Z,1.40
2022-12-06T23:38:03.050Z,1.40
2022-12-06T23:40:38.314Z,1.30
2022-12-06T23:43:06.607Z,1.30
2022-12-06T23:45:34.245Z,1.40
2022-12-06T23:48:09.635Z,1.50
2022-12-06T23:50:39.754Z,1.60
2022-12-06T23:53:09.047Z,1.60
2022-12-06T23:55:44.600Z,1.60
2022-12-06T23:58:12.995Z,1.70
